Osaka International Airport
RJOO : now visible

Airfield :











YOU CAN JOIN US ON...

 
LOGIN :

Register | Disclaimer

   EN    FR    IT 

 









Legend :    VFR   Marginal VFR   IFR   Intensive IFR   Very Intensive IFR
Visi :
Ceiling :
>= 8 km
>= 3000ft
5 to 8 km
1000 to 3000 ft
1500m to 5 km
500 to 1000 ft
800 to 1500m
200 to 500 ft
< 800m
< 200 ft
Symbols :   Thunderstorms  Fog  Heavy snow  Heavy precipitations  Wind > 20 kt






- Airport Elevation : 50 ft
- IATA code : ITM


RJOO - Osaka International

CURRENT METAR :
  • 250400Z 36012KT 9999 FEW025 26/08 Q1015 RMK 1CU025 A2997

EXPIRED METARs :
  • 250300Z 32012KT 270V340 9999 FEW025 25/07 Q1015 RMK 1CU025 A2999
  • 250200Z 32012KT 9999 FEW025 SCT/// 24/08 Q1016 RMK 1CU025 A3000
  • 250100Z 32010KT 9999 FEW025 SCT/// 22/08 Q1016 RMK 1CU025 A3001
  • 250017Z 32011KT 9999 FEW025 SCT/// 21/08 Q1016 RMK 1CU025 A3001
  • 250000Z 02010KT 340V050 9999 FEW025 SCT/// 20/07 Q1016 RMK 1CU025 A3001

TAF TAF RJOO
Valid from the 25 at 00:00 until the 26 at 06:00 UTC


242305Z 2500/2606 34012KT 9999 FEW030
BECMG 2521/2600 21006KT
RJJJ FIR / Asia



MET'MAP, your aeronautical weather chart ! - Copyright ORBIFLY December 2007 - Disclaimer

ORBIFLY MET'MAP TEAM :

Programming & Development : Alexandra Zaïnal
Original concept : Baudouin d'Aumeries
Technical & hardware support : Manuel Goepfert
Assistance : Marc-Olivier Méhu




SOURCES & CREDITS :

   NOAA       Earth
Advisory